Jack C. Davis Observatory, Carson City, Nevada Weather observations

Data are for observation ending at time listed.
 Day   Time    Ave.   Ave.  Ave.  Vector   Max.   Stn.    Total    Solar   Ave.  
  of    of     Air    Rel.  Wind   Wind    Wind   Baro.  Precip.   Rad.    Soil  
Year   Day     Temp.  Hum.  Speed  Dir.    Gust   Pres.                    Temp. 
2017   (PST)    F      %     mph   deg.    mph     mb.     in.     W/m2     F   
------------------------------------------------------------------------------
  35   21:00   41.7    54    7.0   150     11.9   600.1    0.00       0    999.0
  35   21:10   42.0    53    7.0   227     17.2   600.1    0.00       0    999.0
  35   21:20   40.8    57    3.8   145      6.8   600.1    0.00       0    999.0
  35   21:30   39.9    59    2.8   160      6.4   600.1    0.00       0    999.0
  35   21:40   40.0    58    8.0   161     12.9   600.1    0.00       0    999.0
  35   21:50   41.4    53    7.2   168     14.5   600.1    0.00       0    999.0
  35   22:00   41.7    53    4.8   124     11.1   600.1    0.00       0    999.0
  35   22:10   40.0    57    5.0   136      8.1   600.1    0.00       0    999.0
  35   22:20   40.3    56    4.4   161     11.4   600.1    0.00       0    999.0
  35   22:30   41.5    53    5.0   164     11.8   600.1    0.00       0    999.0
  35   22:40   41.0    55    2.7   147      5.7   600.1    0.00       0    999.0
  35   22:50   40.5    56    4.6   196      7.3   600.1    0.00       0    999.0
  35   23:00   40.2    56    3.8   234      6.9   600.1    0.00       0    999.0
  35   23:10   39.7    58    5.2   214      7.5   600.1    0.00       0    999.0
  35   23:20   39.5    59    3.9   229      8.5   600.1    0.00       0    999.0
  35   23:30   40.0    57    5.3   259     12.6   600.1    0.00       0    999.0
  35   23:40   40.4    56    3.6   213      7.3   600.1    0.00       0    999.0
  35   23:50   40.2    56    1.4   338      3.2   600.0    0.00       0    999.0
  36    0:00   39.0    59    3.9   286      8.1   600.0    0.00       0    999.0
  36    0:10   40.0    56    3.1   299      6.7   600.1    0.00       0    999.0
  36    0:20   40.0    56    2.3    77      5.3   600.0    0.00       0    999.0
  36    0:30   39.2    58    1.1   261      3.5   600.0    0.00       0    999.0
  36    0:40   39.0    58    1.5   356      3.7   600.0    0.00       0    999.0
  36    0:50   39.1    57    0.9   325      4.6   600.0    0.00       0    999.0
  36    1:00   38.7    59    3.9   255      6.6   600.0    0.00       0    999.0
  36    1:10   38.0    60    3.6   229      5.4   600.0    0.00       0    999.0
  36    1:20   39.3    57    3.3   243      6.8   600.0    0.00       0    999.0
  36    1:30   40.2    55    2.6    93      3.9   600.0    0.00       0    999.0
  36    1:40   38.7    58    1.9   359      4.2   600.0    0.00       0    999.0
  36    1:50   38.3    59    0.4   201      2.3   600.0    0.00       0    999.0
  36    2:00   37.3    61    1.2   295      3.0   600.0    0.00       0    999.0
  36    2:10   35.8    66    2.8   305      4.2   600.0    0.00       0    999.0
  36    2:20   35.1    68    3.3   302      4.5   600.0    0.00       0    999.0
  36    2:30   34.7    68    3.9   279      5.8   600.0    0.00       0    999.0
  36    2:40   34.6    69    3.8   274      5.8   600.0    0.00       0    999.0
  36    2:50   34.2    69    4.1   268      6.1   600.0    0.00       0    999.0
  36    3:00   34.3    68    4.3   274      7.4   600.0    0.00       0    999.0
  36    3:10   34.4    68    4.0   272      6.1   600.0    0.00       0    999.0
  36    3:20   34.8    66    3.5   270      5.4   600.0    0.00       0    999.0
  36    3:30   35.2    65    3.6   262      5.3   600.0    0.00       0    999.0
  36    3:40   34.2    68    4.5   262      5.6   600.0    0.00       0    999.0
  36    3:50   33.8    70    4.1   276      5.4   600.0    0.00       0    999.0
  36    4:00   34.7    67    4.1   272      5.1   600.0    0.00       0    999.0
  36    4:10   35.0    66    3.0   281      4.7   600.0    0.00       0    999.0
  36    4:20   35.3    65    2.3   309      3.1   600.0    0.00       0    999.0
  36    4:30   35.5    64    0.6    33      2.1   600.0    0.00       0    999.0
  36    4:40   34.9    67    0.9   328      2.0   600.0    0.00       0    999.0
  36    4:50   34.3    69    3.0   289      5.3   600.0    0.00       0    999.0
  36    5:00   33.8    68    2.1     1      3.5   600.0    0.00       0    999.0
  36    5:10   33.3    68    2.5   277      4.2   600.0    0.00       0    999.0
  36    5:20   33.3    68    1.9   270      5.1   600.0    0.00       0    999.0
  36    5:30   32.9    70    3.1   268      5.3   600.0    0.00       0    999.0
  36    5:40   32.4    70    3.7   273      5.0   600.0    0.00       0    999.0
  36    5:50   32.6    70    2.1   316      3.9   600.0    0.00       0    999.0
  36    6:00   32.3    71    2.2   313      3.6   600.0    0.00       0    999.0
  36    6:10   32.0    71    2.3   296      4.2   600.0    0.00       0    999.0
  36    6:20   32.1    71    5.2   269      7.1   600.0    0.00       0    999.0
  36    6:30   32.0    72    3.7   283      5.8   600.0    0.00       0    999.0
  36    6:40   32.5    70    1.7   289      4.1   600.0    0.00       0    999.0
  36    6:50   31.6    74    3.3   297      4.9   600.0    0.00       1    999.0
  36    7:00   31.9    72    2.1   302      4.8   600.0    0.00       1    999.0
  36    7:10   31.8    72    1.9   300      3.3   600.0    0.00       6    999.0
  36    7:20   32.2    71    2.2   283      4.7   600.0    0.00      19    999.0
  36    7:30   32.1    72    2.9   298      4.1   600.0    0.00      33    999.0
  36    7:40   32.7    70    3.1   274      4.5   600.0    0.00      57    999.0
  36    7:50   34.3    67    2.8   299      4.7   600.1    0.00      80    999.0
  36    8:00   36.1    64    1.9   315      4.2   600.1    0.00     130    999.0
  36    8:10   38.1    60    0.8   305      3.1   600.1    0.00     126    999.0
  36    8:20   39.0    60    1.0   193      3.2   600.1    0.00     116    999.0
  36    8:30   37.5    64    1.4   123      3.7   600.1    0.00     154    999.0
  36    8:40   38.5    61    2.2   323      4.8   600.1    0.00     209    999.0
  36    8:50   38.3    62    2.7    58      4.9   600.1    0.00     238    999.0
  36    9:00   38.5    60    1.9   316      3.1   600.1    0.00     272    999.0
  36    9:10   40.7    56    1.4   107      2.4   600.1    0.00     288    999.0
  36    9:20   41.2    55    2.0   157      3.4   600.1    0.00     260    999.0
  36    9:30   42.0    56    1.5   219      3.2   600.1    0.00     275    999.0
  36    9:40   43.7    49    1.0    31      2.5   600.1    0.00     298    999.0
  36    9:50   43.0    52    3.4    66      6.8   600.1    0.00     271    999.0
  36   10:00   40.0    60    1.5    60      4.2   600.1    0.00     279    999.0
  36   10:10   42.2    57    1.9   128      4.2   600.1    0.00     299    999.0
  36   10:20   41.3    54    4.1   104      7.7   600.1    0.00     182    999.0
  36   10:30   41.4    52    1.6    84      5.0   600.1    0.00     182    999.0
  36   10:40   42.5    51    1.1   312      8.0   600.1    0.00     192    999.0
  36   10:50   46.8    42   10.7   174     20.8   600.1    0.00     177    999.0
  36   11:00   49.0    39   10.3   169     17.8   600.1    0.00     206    999.0
  36   11:10   49.1    40   12.9   187     20.0   600.1    0.00     184    999.0
  36   11:20   48.6    42   11.3   185     21.4   600.1    0.00     183    999.0
  36   11:30   50.1    40   10.9   180     17.8   600.1    0.00     525    999.0
  36   11:40   51.7    38   12.1   181     18.6   600.1    0.00     609    999.0
  36   11:50   51.8    38   13.8   181     21.7   600.1    0.00     607    999.0
  36   12:00   51.8    39   13.2   181     20.2   600.1    0.00     596    999.0
  36   12:10   52.3    37   13.5   182     22.1   600.1    0.00     613    999.0
  36   12:20   53.2    36   12.1   185     20.2   600.1    0.00     611    999.0
  36   12:30   53.3    35   13.2   191     19.9   600.1    0.00     610    999.0
  36   12:40   53.7    35   13.5   182     18.5   600.1    0.00     598    999.0
  36   12:50   53.9    35   12.6   188     23.0   600.1    0.00     593    999.0
  36   13:00   54.5    35   10.0   186     17.8   600.1    0.00     568    999.0
  36   13:10   54.7    35   10.9   184     21.4   600.1    0.00     587    999.0
  36   13:20   55.5    35    9.1   176     16.4   600.1    0.00     555    999.0
  36   13:30   55.5    34   11.6   159     19.8   600.1    0.00     601    999.0
  36   13:40   55.0    34   11.5   153     25.1   600.1    0.00     395    999.0
  36   13:50   55.1    34    9.2   165     18.0   600.1    0.00     363    999.0
  36   14:00   55.1    32   11.0   161     18.4   600.1    0.00     361    999.0
  36   14:10   55.1    32   12.0   165     21.6   600.1    0.00     351    999.0
  36   14:20   55.1    32   10.9   165     20.2   600.1    0.00     325    999.0
  36   14:30   55.1    31   14.2   170     21.0   600.1    0.00     353    999.0
  36   14:40   55.1    31   13.1   163     26.2   600.1    0.00     454    999.0
  36   14:50   55.7    30   12.4   158     24.3   600.1    0.00     462    999.0
  36   15:00   56.4    25   14.8   173     25.0   600.1    0.00     440    999.0
  36   15:10   55.6    26   14.8   187     25.5   600.1    0.00     346    999.0
  36   15:20   55.7    25   13.2   182     25.2   600.1    0.00     355    999.0
  36   15:30   55.1    24   16.6   197     27.9   600.1    0.00     327    999.0
  36   15:40   55.0    25   14.4   195     30.0   600.1    0.00     302    999.0
  36   15:50   55.0    25   15.8   187     25.7   600.1    0.00     293    999.0
  36   16:00   54.2    26   14.5   196     22.7   600.1    0.00     242    999.0
  36   16:10   53.4    26   13.0   201     24.4   600.1    0.00     179    999.0
  36   16:20   50.9    29   10.0   207     15.6   600.1    0.00      28    999.0
  36   16:30   50.4    27   13.6   201     22.1   600.1    0.00      21    999.0
  36   16:40   49.9    28   12.1   209     20.0   600.1    0.00      22    999.0
  36   16:50   49.9    27   11.9   188     22.5   600.1    0.00      33    999.0
  36   17:00   49.5    26   14.3   187     24.9   600.1    0.00      27    999.0
  36   17:10   48.9    24   16.5   197     24.7   600.1    0.00      14    999.0
  36   17:20   48.1    24   11.5   194     21.3   600.1    0.00       6    999.0
  36   17:30   47.6    25   11.2   183     27.4   600.1    0.00       2    999.0
  36   17:40   47.1    25   13.6   167     20.8   600.1    0.00       1    999.0
  36   17:50   46.9    25   12.9   167     21.2   600.1    0.00       1    999.0
  36   18:00   46.9    24   15.5   177     27.5   600.1    0.00       0    999.0
  36   18:10   46.6    24   17.0   189     30.7   600.1    0.00       0    999.0
  36   18:20   46.7    23   16.6   203     27.2   600.1    0.00       0    999.0
  36   18:30   46.3    24   15.7   198     26.7   600.1    0.00       0    999.0
  36   18:40   46.3    25   16.0   201     29.5   600.1    0.00       0    999.0
  36   18:50   46.5    26   15.9   198     25.9   600.1    0.00       0    999.0
  36   19:00   46.1    27   11.7   194     18.3   600.1    0.00       0    999.0
  36   19:10   45.8    31   15.5   214     28.6   600.1    0.00       0    999.0
  36   19:20   44.6    41   21.9   212     33.1   600.1    0.00       0    999.0
  36   19:30   42.6    52   14.6   176     22.9   600.1    0.00       0    999.0
  36   19:40   39.5    66   15.7   157     25.5   600.1    0.00       0    999.0
  36   19:50   40.2    61   15.3   181     26.4   600.1    0.00       0    999.0
  36   20:00   39.4    67   12.0   149     21.3   600.1    0.00       0    999.0
  36   20:10   37.5    73   13.9   162     23.3   600.1    0.00       0    999.0
  36   20:20   37.6    72   10.9   166     19.4   600.1    0.00       0    999.0
  36   20:30   37.4    73   11.2   169     17.6   600.1    0.00       0    999.0
  36   20:40   37.2    74   10.2   178     17.1   600.1    0.00       0    999.0
  36   20:50   37.4    73   11.6   170     19.5   600.1    0.00       0    999.0

Return to Yerington, Nevada graphs page.


Western Regional Climate Center,wrcc@dri.edu